sensor_id;sensor_type;location;lat;lon;timestamp;pressure;altitude;pressure_sealevel;temperature;humidity
12973;BME280;6551;51.056;9.466;2023-02-13T00:00:18;99703.94;;;15.65;55.16
12973;BME280;6551;51.056;9.466;2023-02-13T00:02:44;99707.63;;;15.64;54.77
12973;BME280;6551;51.056;9.466;2023-02-13T00:05:10;99704.31;;;15.62;54.32
12973;BME280;6551;51.056;9.466;2023-02-13T00:07:36;99693.88;;;14.71;56.19
12973;BME280;6551;51.056;9.466;2023-02-13T00:10:04;99691.78;;;14.02;59.48
12973;BME280;6551;51.056;9.466;2023-02-13T00:12:32;99688.91;;;13.47;59.65
12973;BME280;6551;51.056;9.466;2023-02-13T00:14:59;99693.16;;;12.83;60.86
12973;BME280;6551;51.056;9.466;2023-02-13T00:17:25;99692.06;;;12.40;64.58
12973;BME280;6551;51.056;9.466;2023-02-13T00:19:51;99694.41;;;11.98;63.64
12973;BME280;6551;51.056;9.466;2023-02-13T00:22:17;99697.13;;;11.59;65.59
12973;BME280;6551;51.056;9.466;2023-02-13T00:24:42;99690.13;;;11.27;67.15
12973;BME280;6551;51.056;9.466;2023-02-13T00:27:09;99688.88;;;11.07;69.28
12973;BME280;6551;51.056;9.466;2023-02-13T00:29:36;99693.41;;;11.37;70.31
12973;BME280;6551;51.056;9.466;2023-02-13T00:32:03;99694.28;;;11.91;69.01
12973;BME280;6551;51.056;9.466;2023-02-13T00:34:29;99686.34;;;12.66;64.24
12973;BME280;6551;51.056;9.466;2023-02-13T00:36:55;99690.50;;;13.41;61.63
12973;BME280;6551;51.056;9.466;2023-02-13T00:39:21;99688.72;;;13.84;59.62
12973;BME280;6551;51.056;9.466;2023-02-13T00:41:48;99686.88;;;14.27;58.06
12973;BME280;6551;51.056;9.466;2023-02-13T00:44:15;99685.97;;;14.62;57.40
12973;BME280;6551;51.056;9.466;2023-02-13T00:46:42;99686.38;;;14.94;55.97
12973;BME280;6551;51.056;9.466;2023-02-13T00:49:09;99689.03;;;15.21;55.34
12973;BME280;6551;51.056;9.466;2023-02-13T00:51:36;99691.91;;;15.54;54.41
12973;BME280;6551;51.056;9.466;2023-02-13T00:54:03;99683.94;;;15.80;53.36
12973;BME280;6551;51.056;9.466;2023-02-13T00:56:31;99692.06;;;16.07;52.30
12973;BME280;6551;51.056;9.466;2023-02-13T00:58:56;99689.81;;;16.43;51.64
12973;BME280;6551;51.056;9.466;2023-02-13T01:01:23;99685.91;;;16.59;51.34
12973;BME280;6551;51.056;9.466;2023-02-13T01:03:49;99682.59;;;16.63;50.88
12973;BME280;6551;51.056;9.466;2023-02-13T01:06:14;99688.19;;;16.81;50.27
12973;BME280;6551;51.056;9.466;2023-02-13T01:08:40;99691.28;;;16.72;50.21
12973;BME280;6551;51.056;9.466;2023-02-13T01:11:06;99688.59;;;16.72;50.35
12973;BME280;6551;51.056;9.466;2023-02-13T01:13:33;99676.59;;;16.87;50.02
12973;BME280;6551;51.056;9.466;2023-02-13T01:15:59;99671.81;;;16.89;49.63
12973;BME280;6551;51.056;9.466;2023-02-13T01:18:25;99681.34;;;16.79;49.59
12973;BME280;6551;51.056;9.466;2023-02-13T01:20:57;99680.31;;;16.41;51.65
12973;BME280;6551;51.056;9.466;2023-02-13T01:23:24;99679.47;;;16.27;52.13
12973;BME280;6551;51.056;9.466;2023-02-13T01:25:49;99678.38;;;15.89;52.19
12973;BME280;6551;51.056;9.466;2023-02-13T01:28:16;99680.47;;;16.06;51.68
12973;BME280;6551;51.056;9.466;2023-02-13T01:30:43;99680.50;;;16.13;51.45
12973;BME280;6551;51.056;9.466;2023-02-13T01:33:10;99672.25;;;15.47;52.75
12973;BME280;6551;51.056;9.466;2023-02-13T01:35:41;99670.91;;;14.34;55.81
12973;BME280;6551;51.056;9.466;2023-02-13T01:38:08;99675.59;;;14.11;58.71
12973;BME280;6551;51.056;9.466;2023-02-13T01:40:35;99680.41;;;13.58;58.25
12973;BME280;6551;51.056;9.466;2023-02-13T01:43:00;99672.63;;;13.13;59.62
12973;BME280;6551;51.056;9.466;2023-02-13T01:45:30;99678.47;;;12.64;60.26
12973;BME280;6551;51.056;9.466;2023-02-13T01:48:24;99684.03;;;12.63;62.51
12973;BME280;6551;51.056;9.466;2023-02-13T01:51:01;99681.28;;;13.00;60.75
12973;BME280;6551;51.056;9.466;2023-02-13T01:54:21;99674.50;;;13.63;58.93
12973;BME280;6551;51.056;9.466;2023-02-13T01:56:55;99671.72;;;13.92;57.60
12973;BME280;6551;51.056;9.466;2023-02-13T01:59:32;99676.25;;;14.13;57.72
12973;BME280;6551;51.056;9.466;2023-02-13T02:02:00;99671.91;;;14.33;56.18
12973;BME280;6551;51.056;9.466;2023-02-13T02:04:35;99672.22;;;14.72;55.29
12973;BME280;6551;51.056;9.466;2023-02-13T02:07:13;99670.28;;;14.87;54.05
12973;BME280;6551;51.056;9.466;2023-02-13T02:09:42;99660.84;;;14.98;54.61
12973;BME280;6551;51.056;9.466;2023-02-13T02:12:37;99675.03;;;15.33;53.76
12973;BME280;6551;51.056;9.466;2023-02-13T02:15:07;99667.53;;;15.49;53.06
12973;BME280;6551;51.056;9.466;2023-02-13T02:17:34;99664.03;;;15.62;52.05
12973;BME280;6551;51.056;9.466;2023-02-13T02:32:27;99663.13;;;16.22;50.81
12973;BME280;6551;51.056;9.466;2023-02-13T02:35:33;99654.25;;;16.34;50.44
12973;BME280;6551;51.056;9.466;2023-02-13T02:38:13;99659.59;;;16.28;50.55
12973;BME280;6551;51.056;9.466;2023-02-13T02:47:11;99656.09;;;16.21;50.63
12973;BME280;6551;51.056;9.466;2023-02-13T02:50:42;99651.97;;;16.18;50.51
12973;BME280;6551;51.056;9.466;2023-02-13T03:01:37;99655.63;;;14.90;53.30
12973;BME280;6551;51.056;9.466;2023-02-13T03:04:45;99661.88;;;14.69;53.56
12973;BME280;6551;51.056;9.466;2023-02-13T03:07:30;99655.38;;;14.50;54.27
12973;BME280;6551;51.056;9.466;2023-02-13T03:10:02;99657.50;;;14.34;54.51
12973;BME280;6551;51.056;9.466;2023-02-13T03:13:04;99651.06;;;14.56;54.18
12973;BME280;6551;51.056;9.466;2023-02-13T03:15:51;99648.91;;;14.73;54.25
12973;BME280;6551;51.056;9.466;2023-02-13T03:18:43;99659.66;;;14.73;53.81
12973;BME280;6551;51.056;9.466;2023-02-13T03:21:48;99648.03;;;14.93;52.99
12973;BME280;6551;51.056;9.466;2023-02-13T03:28:04;99652.91;;;14.55;54.32
12973;BME280;6551;51.056;9.466;2023-02-13T03:37:00;99636.47;;;12.87;57.78
12973;BME280;6551;51.056;9.466;2023-02-13T03:42:47;99645.56;;;12.12;61.65
12973;BME280;6551;51.056;9.466;2023-02-13T03:45:36;99657.72;;;12.14;60.44
12973;BME280;6551;51.056;9.466;2023-02-13T03:48:48;99653.59;;;12.49;60.66
12973;BME280;6551;51.056;9.466;2023-02-13T03:51:41;99655.56;;;12.84;59.33
12973;BME280;6551;51.056;9.466;2023-02-13T03:54:19;99655.28;;;13.23;57.57
12973;BME280;6551;51.056;9.466;2023-02-13T03:56:48;99656.88;;;13.18;57.97
12973;BME280;6551;51.056;9.466;2023-02-13T03:59:36;99648.84;;;12.37;59.93
12973;BME280;6551;51.056;9.466;2023-02-13T04:02:13;99652.84;;;12.41;60.37
12973;BME280;6551;51.056;9.466;2023-02-13T04:04:46;99661.59;;;12.64;60.34
12973;BME280;6551;51.056;9.466;2023-02-13T04:07:17;99664.94;;;12.95;59.72
12973;BME280;6551;51.056;9.466;2023-02-13T04:10:10;99665.78;;;13.25;58.53
12973;BME280;6551;51.056;9.466;2023-02-13T04:13:20;99662.63;;;13.72;57.11
12973;BME280;6551;51.056;9.466;2023-02-13T04:15:56;99665.75;;;13.54;56.78
12973;BME280;6551;51.056;9.466;2023-02-13T04:18:29;99666.47;;;13.12;58.62
12973;BME280;6551;51.056;9.466;2023-02-13T04:21:01;99659.38;;;12.38;60.73
12973;BME280;6551;51.056;9.466;2023-02-13T04:23:29;99670.72;;;12.17;60.74
12973;BME280;6551;51.056;9.466;2023-02-13T04:25:56;99666.22;;;11.95;61.66
12973;BME280;6551;51.056;9.466;2023-02-13T04:28:22;99662.66;;;12.03;62.17
12973;BME280;6551;51.056;9.466;2023-02-13T04:30:48;99664.31;;;12.26;61.80
12973;BME280;6551;51.056;9.466;2023-02-13T04:33:18;99653.56;;;12.35;61.15
12973;BME280;6551;51.056;9.466;2023-02-13T04:35:45;99655.72;;;12.54;61.00
12973;BME280;6551;51.056;9.466;2023-02-13T04:38:10;99663.38;;;12.86;59.73
12973;BME280;6551;51.056;9.466;2023-02-13T04:40:37;99661.91;;;12.83;59.80
12973;BME280;6551;51.056;9.466;2023-02-13T04:43:05;99662.06;;;12.53;60.22
12973;BME280;6551;51.056;9.466;2023-02-13T04:45:32;99661.78;;;12.48;60.17
12973;BME280;6551;51.056;9.466;2023-02-13T04:47:59;99666.69;;;12.73;60.25
12973;BME280;6551;51.056;9.466;2023-02-13T04:50:28;99661.47;;;13.09;58.90
12973;BME280;6551;51.056;9.466;2023-02-13T04:52:56;99655.19;;;13.17;58.07
12973;BME280;6551;51.056;9.466;2023-02-13T04:55:25;99663.00;;;13.33;57.78
12973;BME280;6551;51.056;9.466;2023-02-13T04:57:53;99657.94;;;13.38;57.79
12973;BME280;6551;51.056;9.466;2023-02-13T05:00:23;99654.53;;;13.29;57.89
12973;BME280;6551;51.056;9.466;2023-02-13T05:02:50;99654.91;;;13.41;57.35
12973;BME280;6551;51.056;9.466;2023-02-13T05:05:16;99657.34;;;13.57;56.80
12973;BME280;6551;51.056;9.466;2023-02-13T05:07:42;99644.81;;;13.79;56.33
12973;BME280;6551;51.056;9.466;2023-02-13T05:10:10;99648.94;;;13.81;56.50
12973;BME280;6551;51.056;9.466;2023-02-13T05:12:37;99647.56;;;13.49;57.64
12973;BME280;6551;51.056;9.466;2023-02-13T05:15:05;99652.31;;;13.04;58.59
12973;BME280;6551;51.056;9.466;2023-02-13T05:17:31;99654.44;;;12.94;58.75
12973;BME280;6551;51.056;9.466;2023-02-13T05:19:56;99647.72;;;12.98;59.39
12973;BME280;6551;51.056;9.466;2023-02-13T05:22:23;99653.44;;;13.09;58.74
12973;BME280;6551;51.056;9.466;2023-02-13T05:25:09;99652.53;;;13.53;57.37
12973;BME280;6551;51.056;9.466;2023-02-13T05:27:34;99656.19;;;13.66;56.89
12973;BME280;6551;51.056;9.466;2023-02-13T05:30:01;99654.56;;;14.07;55.96
12973;BME280;6551;51.056;9.466;2023-02-13T05:32:28;99650.91;;;14.36;55.40
12973;BME280;6551;51.056;9.466;2023-02-13T05:34:55;99657.13;;;14.64;54.31
12973;BME280;6551;51.056;9.466;2023-02-13T05:37:22;99655.28;;;14.65;54.42
12973;BME280;6551;51.056;9.466;2023-02-13T05:39:48;99654.50;;;14.71;53.88
12973;BME280;6551;51.056;9.466;2023-02-13T05:42:13;99650.56;;;14.25;54.98
12973;BME280;6551;51.056;9.466;2023-02-13T05:44:40;99655.38;;;14.29;55.36
12973;BME280;6551;51.056;9.466;2023-02-13T05:47:06;99652.78;;;14.15;55.81
12973;BME280;6551;51.056;9.466;2023-02-13T05:49:33;99658.22;;;14.28;55.45
12973;BME280;6551;51.056;9.466;2023-02-13T05:52:00;99653.63;;;14.22;55.54
12973;BME280;6551;51.056;9.466;2023-02-13T05:54:25;99647.66;;;13.77;56.38
12973;BME280;6551;51.056;9.466;2023-02-13T05:56:52;99641.78;;;13.88;56.79
12973;BME280;6551;51.056;9.466;2023-02-13T05:59:18;99641.81;;;13.31;58.22
12973;BME280;6551;51.056;9.466;2023-02-13T06:01:44;99642.75;;;13.09;58.42
12973;BME280;6551;51.056;9.466;2023-02-13T06:04:09;99643.63;;;12.58;59.92
12973;BME280;6551;51.056;9.466;2023-02-13T06:06:36;99644.22;;;12.30;61.27
12973;BME280;6551;51.056;9.466;2023-02-13T06:09:03;99640.41;;;12.48;60.84
12973;BME280;6551;51.056;9.466;2023-02-13T06:11:30;99638.75;;;12.09;61.91
12973;BME280;6551;51.056;9.466;2023-02-13T06:13:56;99649.00;;;12.20;61.29
12973;BME280;6551;51.056;9.466;2023-02-13T06:16:21;99644.06;;;12.32;61.13
12973;BME280;6551;51.056;9.466;2023-02-13T06:18:47;99645.59;;;12.49;60.88
12973;BME280;6551;51.056;9.466;2023-02-13T06:21:16;99647.91;;;12.81;60.23
12973;BME280;6551;51.056;9.466;2023-02-13T06:23:41;99642.94;;;12.93;59.24
12973;BME280;6551;51.056;9.466;2023-02-13T06:26:08;99646.88;;;12.97;59.53
12973;BME280;6551;51.056;9.466;2023-02-13T06:28:35;99649.84;;;13.17;58.63
12973;BME280;6551;51.056;9.466;2023-02-13T06:31:03;99651.56;;;13.39;57.82
12973;BME280;6551;51.056;9.466;2023-02-13T06:33:30;99656.19;;;13.30;57.67
12973;BME280;6551;51.056;9.466;2023-02-13T06:35:56;99655.44;;;13.22;58.18
12973;BME280;6551;51.056;9.466;2023-02-13T06:38:23;99663.22;;;13.17;58.85
12973;BME280;6551;51.056;9.466;2023-02-13T06:40:49;99665.25;;;13.29;58.45
12973;BME280;6551;51.056;9.466;2023-02-13T06:43:16;99661.91;;;13.27;58.64
12973;BME280;6551;51.056;9.466;2023-02-13T06:45:44;99664.69;;;12.90;59.49
12973;BME280;6551;51.056;9.466;2023-02-13T06:48:11;99666.22;;;12.70;60.31
12973;BME280;6551;51.056;9.466;2023-02-13T06:50:37;99660.34;;;12.89;59.62
12973;BME280;6551;51.056;9.466;2023-02-13T06:53:04;99665.88;;;13.17;58.90
12973;BME280;6551;51.056;9.466;2023-02-13T06:55:30;99666.72;;;13.32;57.92
12973;BME280;6551;51.056;9.466;2023-02-13T06:57:55;99669.88;;;13.57;57.45
12973;BME280;6551;51.056;9.466;2023-02-13T07:00:21;99671.97;;;13.76;56.91
12973;BME280;6551;51.056;9.466;2023-02-13T07:02:47;99671.66;;;13.85;56.56
12973;BME280;6551;51.056;9.466;2023-02-13T07:05:13;99685.22;;;14.05;55.97
12973;BME280;6551;51.056;9.466;2023-02-13T07:07:41;99670.56;;;14.22;55.29
12973;BME280;6551;51.056;9.466;2023-02-13T07:10:12;99679.88;;;14.47;55.10
12973;BME280;6551;51.056;9.466;2023-02-13T07:12:38;99678.78;;;14.42;54.59
12973;BME280;6551;51.056;9.466;2023-02-13T07:15:04;99683.88;;;14.58;54.68
12973;BME280;6551;51.056;9.466;2023-02-13T07:17:30;99683.88;;;14.58;54.19
12973;BME280;6551;51.056;9.466;2023-02-13T07:19:56;99688.59;;;13.71;56.46
12973;BME280;6551;51.056;9.466;2023-02-13T07:22:22;99690.84;;;13.53;56.42
12973;BME280;6551;51.056;9.466;2023-02-13T07:24:49;99684.59;;;13.46;57.08
12973;BME280;6551;51.056;9.466;2023-02-13T07:27:14;99687.28;;;13.17;58.06
12973;BME280;6551;51.056;9.466;2023-02-13T07:29:41;99689.44;;;12.69;58.76
12973;BME280;6551;51.056;9.466;2023-02-13T07:32:07;99682.50;;;12.46;60.45
12973;BME280;6551;51.056;9.466;2023-02-13T07:34:34;99690.34;;;12.47;59.98
12973;BME280;6551;51.056;9.466;2023-02-13T07:37:01;99689.19;;;12.79;59.18
12973;BME280;6551;51.056;9.466;2023-02-13T07:39:30;99692.06;;;13.07;58.54
12973;BME280;6551;51.056;9.466;2023-02-13T07:41:58;99686.09;;;13.05;58.77
12973;BME280;6551;51.056;9.466;2023-02-13T07:44:23;99691.00;;;12.64;59.58
12973;BME280;6551;51.056;9.466;2023-02-13T07:46:49;99687.34;;;12.94;58.45
12973;BME280;6551;51.056;9.466;2023-02-13T07:49:16;99686.91;;;13.20;57.85
12973;BME280;6551;51.056;9.466;2023-02-13T07:51:43;99694.69;;;13.29;58.02
12973;BME280;6551;51.056;9.466;2023-02-13T07:54:08;99701.44;;;12.73;59.01
12973;BME280;6551;51.056;9.466;2023-02-13T07:56:35;99694.53;;;12.79;59.44
12973;BME280;6551;51.056;9.466;2023-02-13T07:59:01;99694.94;;;12.90;58.43
12973;BME280;6551;51.056;9.466;2023-02-13T08:01:26;99696.03;;;12.96;58.80
12973;BME280;6551;51.056;9.466;2023-02-13T08:03:52;99697.53;;;13.28;57.85
12973;BME280;6551;51.056;9.466;2023-02-13T08:06:19;99694.69;;;13.65;57.12
12973;BME280;6551;51.056;9.466;2023-02-13T08:08:45;99686.97;;;14.13;56.20
12973;BME280;6551;51.056;9.466;2023-02-13T08:11:33;99690.00;;;15.07;53.87
12973;BME280;6551;51.056;9.466;2023-02-13T08:14:18;99680.47;;;15.93;51.78
12973;BME280;6551;51.056;9.466;2023-02-13T08:16:44;99686.72;;;16.85;49.70
12973;BME280;6551;51.056;9.466;2023-02-13T08:19:09;99683.81;;;17.64;48.68
12973;BME280;6551;51.056;9.466;2023-02-13T08:21:36;99686.06;;;18.36;47.99
12973;BME280;6551;51.056;9.466;2023-02-13T08:24:03;99683.72;;;18.96;45.76
12973;BME280;6551;51.056;9.466;2023-02-13T08:26:34;99675.41;;;19.34;44.80
12973;BME280;6551;51.056;9.466;2023-02-13T08:29:00;99671.72;;;19.64;43.93
12973;BME280;6551;51.056;9.466;2023-02-13T08:31:26;99670.41;;;19.85;43.70
12973;BME280;6551;51.056;9.466;2023-02-13T08:33:51;99686.13;;;20.06;42.75
12973;BME280;6551;51.056;9.466;2023-02-13T08:36:18;99670.06;;;20.23;42.97
12973;BME280;6551;51.056;9.466;2023-02-13T08:38:46;99675.06;;;20.49;42.47
12973;BME280;6551;51.056;9.466;2023-02-13T08:41:13;99670.38;;;20.68;41.96
12973;BME280;6551;51.056;9.466;2023-02-13T08:43:38;99671.34;;;20.73;41.98
12973;BME280;6551;51.056;9.466;2023-02-13T08:46:05;99677.22;;;20.82;41.51
12973;BME280;6551;51.056;9.466;2023-02-13T08:48:32;99670.03;;;20.76;41.45
12973;BME280;6551;51.056;9.466;2023-02-13T08:50:59;99675.09;;;20.95;41.65
12973;BME280;6551;51.056;9.466;2023-02-13T08:53:25;99669.19;;;21.33;41.58
12973;BME280;6551;51.056;9.466;2023-02-13T08:55:56;99673.66;;;21.28;40.78
12973;BME280;6551;51.056;9.466;2023-02-13T08:58:23;99665.88;;;21.43;41.21
12973;BME280;6551;51.056;9.466;2023-02-13T09:00:50;99675.78;;;21.37;41.21
12973;BME280;6551;51.056;9.466;2023-02-13T09:03:16;99670.94;;;21.39;41.16
12973;BME280;6551;51.056;9.466;2023-02-13T09:05:42;99658.88;;;21.47;40.49
12973;BME280;6551;51.056;9.466;2023-02-13T09:08:08;99667.59;;;21.09;41.25
12973;BME280;6551;51.056;9.466;2023-02-13T09:10:39;99664.38;;;21.24;41.11
12973;BME280;6551;51.056;9.466;2023-02-13T09:13:06;99667.56;;;21.32;40.47
12973;BME280;6551;51.056;9.466;2023-02-13T09:15:32;99670.41;;;20.79;41.04
12973;BME280;6551;51.056;9.466;2023-02-13T09:18:00;99663.69;;;20.70;41.46
12973;BME280;6551;51.056;9.466;2023-02-13T09:20:26;99666.16;;;20.19;41.76
12973;BME280;6551;51.056;9.466;2023-02-13T09:22:53;99676.22;;;19.52;43.38
12973;BME280;6551;51.056;9.466;2023-02-13T09:25:19;99676.28;;;19.64;43.71
12973;BME280;6551;51.056;9.466;2023-02-13T09:27:47;99669.41;;;19.68;43.50
12973;BME280;6551;51.056;9.466;2023-02-13T09:30:13;99669.50;;;19.43;43.25
12973;BME280;6551;51.056;9.466;2023-02-13T09:32:49;99675.31;;;19.58;43.57
12973;BME280;6551;51.056;9.466;2023-02-13T09:35:17;99674.19;;;19.66;43.01
12973;BME280;6551;51.056;9.466;2023-02-13T09:37:45;99670.44;;;19.97;43.15
12973;BME280;6551;51.056;9.466;2023-02-13T09:40:51;99674.59;;;20.52;42.26
12973;BME280;6551;51.056;9.466;2023-02-13T09:43:36;99665.22;;;20.89;41.51
12973;BME280;6551;51.056;9.466;2023-02-13T09:46:32;99669.56;;;21.25;41.60
12973;BME280;6551;51.056;9.466;2023-02-13T09:49:28;99674.94;;;21.48;40.13
12973;BME280;6551;51.056;9.466;2023-02-13T09:51:56;99668.81;;;21.30;40.45
12973;BME280;6551;51.056;9.466;2023-02-13T09:54:24;99666.00;;;21.36;41.19
12973;BME280;6551;51.056;9.466;2023-02-13T09:57:07;99673.16;;;21.54;40.87
12973;BME280;6551;51.056;9.466;2023-02-13T10:00:17;99670.50;;;20.84;41.39
12973;BME280;6551;51.056;9.466;2023-02-13T10:03:23;99671.19;;;21.38;41.20
12973;BME280;6551;51.056;9.466;2023-02-13T10:09:08;99669.72;;;21.98;39.87
12973;BME280;6551;51.056;9.466;2023-02-13T10:12:21;99663.13;;;22.11;39.97
12973;BME280;6551;51.056;9.466;2023-02-13T10:18:13;99671.19;;;21.03;43.03
12973;BME280;6551;51.056;9.466;2023-02-13T10:26:07;99668.72;;;19.18;45.33
12973;BME280;6551;51.056;9.466;2023-02-13T10:28:42;99669.56;;;19.18;46.71
12973;BME280;6551;51.056;9.466;2023-02-13T10:31:17;99672.69;;;18.97;46.46
12973;BME280;6551;51.056;9.466;2023-02-13T10:33:54;99669.75;;;18.56;46.64
12973;BME280;6551;51.056;9.466;2023-02-13T10:36:32;99665.44;;;18.24;47.69
12973;BME280;6551;51.056;9.466;2023-02-13T10:39:30;99665.44;;;17.92;48.16
12973;BME280;6551;51.056;9.466;2023-02-13T10:48:24;99654.31;;;17.31;49.27
12973;BME280;6551;51.056;9.466;2023-02-13T10:54:37;99654.25;;;17.44;50.26
12973;BME280;6551;51.056;9.466;2023-02-13T10:57:49;99653.03;;;17.34;50.61
12973;BME280;6551;51.056;9.466;2023-02-13T11:00:32;99654.59;;;17.10;51.12
12973;BME280;6551;51.056;9.466;2023-02-13T11:03:01;99647.72;;;17.14;50.34
12973;BME280;6551;51.056;9.466;2023-02-13T11:05:46;99636.81;;;16.89;50.13
12973;BME280;6551;51.056;9.466;2023-02-13T11:08:38;99648.84;;;16.80;50.47
12973;BME280;6551;51.056;9.466;2023-02-13T11:11:37;99642.25;;;16.76;51.43
12973;BME280;6551;51.056;9.466;2023-02-13T11:16:57;99633.78;;;16.27;51.30
12973;BME280;6551;51.056;9.466;2023-02-13T11:19:45;99638.72;;;16.23;51.84
12973;BME280;6551;51.056;9.466;2023-02-13T11:22:39;99633.97;;;16.32;52.44
12973;BME280;6551;51.056;9.466;2023-02-13T11:25:27;99636.19;;;17.01;51.75
12973;BME280;6551;51.056;9.466;2023-02-13T11:28:16;99634.56;;;16.93;51.66
12973;BME280;6551;51.056;9.466;2023-02-13T11:30:43;99629.72;;;17.08;51.25
12973;BME280;6551;51.056;9.466;2023-02-13T11:33:26;99637.56;;;17.23;49.83
12973;BME280;6551;51.056;9.466;2023-02-13T11:36:15;99638.38;;;17.23;49.94
12973;BME280;6551;51.056;9.466;2023-02-13T11:38:42;99629.00;;;17.39;50.38
12973;BME280;6551;51.056;9.466;2023-02-13T11:41:21;99632.50;;;17.39;49.90
12973;BME280;6551;51.056;9.466;2023-02-13T11:46:51;99631.06;;;17.43;49.93
12973;BME280;6551;51.056;9.466;2023-02-13T11:49:27;99627.31;;;17.44;49.71
12973;BME280;6551;51.056;9.466;2023-02-13T11:51:58;99629.03;;;17.32;50.53
12973;BME280;6551;51.056;9.466;2023-02-13T11:54:43;99627.69;;;17.92;49.21
12973;BME280;6551;51.056;9.466;2023-02-13T11:59:51;99613.94;;;18.25;47.84
12973;BME280;6551;51.056;9.466;2023-02-13T12:02:30;99614.59;;;18.52;47.88
12973;BME280;6551;51.056;9.466;2023-02-13T12:05:20;99605.22;;;18.30;47.44
12973;BME280;6551;51.056;9.466;2023-02-13T12:07:48;99596.47;;;18.09;48.10
12973;BME280;6551;51.056;9.466;2023-02-13T12:10:21;99595.50;;;18.22;48.74
12973;BME280;6551;51.056;9.466;2023-02-13T12:15:39;99602.44;;;18.36;47.32
12973;BME280;6551;51.056;9.466;2023-02-13T12:22:21;99597.94;;;18.30;47.77
12973;BME280;6551;51.056;9.466;2023-02-13T12:40:41;99578.25;;;18.73;46.65
12973;BME280;6551;51.056;9.466;2023-02-13T12:46:07;99563.94;;;18.29;47.00
12973;BME280;6551;51.056;9.466;2023-02-13T12:54:54;99561.16;;;18.79;46.33
12973;BME280;6551;51.056;9.466;2023-02-13T12:57:42;99552.91;;;18.92;46.42
12973;BME280;6551;51.056;9.466;2023-02-13T13:06:45;99547.06;;;18.58;46.44
12973;BME280;6551;51.056;9.466;2023-02-13T13:13:10;99546.75;;;18.48;48.17
12973;BME280;6551;51.056;9.466;2023-02-13T13:18:15;99545.28;;;17.78;48.50
12973;BME280;6551;51.056;9.466;2023-02-13T13:21:16;99541.44;;;17.92;48.77
12973;BME280;6551;51.056;9.466;2023-02-13T13:24:09;99541.19;;;17.94;49.44
12973;BME280;6551;51.056;9.466;2023-02-13T13:26:44;99537.91;;;17.67;50.05
12973;BME280;6551;51.056;9.466;2023-02-13T13:31:56;99536.56;;;17.45;50.25
12973;BME280;6551;51.056;9.466;2023-02-13T13:34:26;99531.53;;;17.55;50.35
12973;BME280;6551;51.056;9.466;2023-02-13T13:43:10;99520.53;;;17.19;50.89
12973;BME280;6551;51.056;9.466;2023-02-13T13:51:23;99522.28;;;16.49;51.97
12973;BME280;6551;51.056;9.466;2023-02-13T14:05:28;99505.16;;;16.17;53.28
12973;BME280;6551;51.056;9.466;2023-02-13T14:11:26;99495.88;;;16.07;54.14
12973;BME280;6551;51.056;9.466;2023-02-13T14:13:53;99504.16;;;15.79;54.20
12973;BME280;6551;51.056;9.466;2023-02-13T14:19:21;99501.88;;;15.76;54.04
12973;BME280;6551;51.056;9.466;2023-02-13T14:21:49;99497.56;;;15.68;54.47
12973;BME280;6551;51.056;9.466;2023-02-13T14:24:18;99507.88;;;15.65;54.21
12973;BME280;6551;51.056;9.466;2023-02-13T14:26:53;99503.31;;;15.59;54.79
12973;BME280;6551;51.056;9.466;2023-02-13T14:29:31;99499.78;;;15.45;55.01
12973;BME280;6551;51.056;9.466;2023-02-13T14:32:14;99510.97;;;15.49;55.26
12973;BME280;6551;51.056;9.466;2023-02-13T14:34:51;99498.09;;;15.44;55.55
12973;BME280;6551;51.056;9.466;2023-02-13T14:37:49;99501.25;;;15.61;55.45
12973;BME280;6551;51.056;9.466;2023-02-13T14:45:55;99500.59;;;15.46;55.31
12973;BME280;6551;51.056;9.466;2023-02-13T14:48:39;99497.50;;;15.42;55.22
12973;BME280;6551;51.056;9.466;2023-02-13T14:54:38;99501.25;;;15.48;56.36
12973;BME280;6551;51.056;9.466;2023-02-13T14:57:25;99511.19;;;15.54;56.18
12973;BME280;6551;51.056;9.466;2023-02-13T14:59:57;99504.09;;;15.40;55.37
12973;BME280;6551;51.056;9.466;2023-02-13T15:02:32;99498.13;;;15.38;55.96
12973;BME280;6551;51.056;9.466;2023-02-13T15:05:19;99501.00;;;15.43;56.41
12973;BME280;6551;51.056;9.466;2023-02-13T15:08:01;99491.13;;;15.50;56.61
12973;BME280;6551;51.056;9.466;2023-02-13T15:13:11;99492.31;;;15.21;57.18
12973;BME280;6551;51.056;9.466;2023-02-13T15:15:38;99487.75;;;15.21;56.85
12973;BME280;6551;51.056;9.466;2023-02-13T15:18:17;99486.34;;;15.32;56.97
12973;BME280;6551;51.056;9.466;2023-02-13T15:20:59;99483.56;;;14.99;56.91
12973;BME280;6551;51.056;9.466;2023-02-13T15:23:31;99489.53;;;14.95;57.77
12973;BME280;6551;51.056;9.466;2023-02-13T15:26:05;99490.13;;;14.84;58.02
12973;BME280;6551;51.056;9.466;2023-02-13T15:28:32;99486.16;;;14.73;58.29
12973;BME280;6551;51.056;9.466;2023-02-13T15:31:19;99484.09;;;14.69;58.66
12973;BME280;6551;51.056;9.466;2023-02-13T15:33:50;99497.44;;;14.55;58.96
12973;BME280;6551;51.056;9.466;2023-02-13T15:36:22;99491.00;;;14.50;59.48
12973;BME280;6551;51.056;9.466;2023-02-13T15:39:05;99496.44;;;14.29;59.84
12973;BME280;6551;51.056;9.466;2023-02-13T15:41:41;99503.66;;;14.28;59.84
12973;BME280;6551;51.056;9.466;2023-02-13T15:44:16;99500.13;;;14.28;59.96
12973;BME280;6551;51.056;9.466;2023-02-13T15:46:46;99501.91;;;14.14;60.33
12973;BME280;6551;51.056;9.466;2023-02-13T15:49:21;99499.91;;;14.23;60.27
12973;BME280;6551;51.056;9.466;2023-02-13T15:52:05;99497.63;;;14.20;60.02
12973;BME280;6551;51.056;9.466;2023-02-13T15:54:34;99495.63;;;14.00;60.52
12973;BME280;6551;51.056;9.466;2023-02-13T15:57:05;99486.19;;;14.04;60.98
12973;BME280;6551;51.056;9.466;2023-02-13T15:59:37;99482.53;;;13.84;62.58
12973;BME280;6551;51.056;9.466;2023-02-13T16:02:14;99480.03;;;13.55;63.88
12973;BME280;6551;51.056;9.466;2023-02-13T16:04:42;99481.72;;;13.35;64.09
12973;BME280;6551;51.056;9.466;2023-02-13T16:07:11;99479.69;;;13.01;65.58
12973;BME280;6551;51.056;9.466;2023-02-13T16:09:37;99482.66;;;12.91;66.07
12973;BME280;6551;51.056;9.466;2023-02-13T16:12:22;99478.19;;;12.77;66.69
12973;BME280;6551;51.056;9.466;2023-02-13T16:15:05;99478.31;;;12.69;67.10
12973;BME280;6551;51.056;9.466;2023-02-13T16:17:38;99475.47;;;12.42;67.44
12973;BME280;6551;51.056;9.466;2023-02-13T16:20:19;99474.88;;;12.10;68.38